sensor_id;sensor_type;location;lat;lon;timestamp;P1;durP1;ratioP1;P2;durP2;ratioP2
5040;SDS011;2539;52.568;13.364;2023-04-01T00:01:03;3.17;;;2.73;;
5040;SDS011;2539;52.568;13.364;2023-04-01T00:03:31;4.53;;;2.93;;
5040;SDS011;2539;52.568;13.364;2023-04-01T00:05:59;4.13;;;2.60;;
5040;SDS011;2539;52.568;13.364;2023-04-01T00:08:26;4.13;;;2.47;;
5040;SDS011;2539;52.568;13.364;2023-04-01T00:10:53;3.10;;;2.47;;
5040;SDS011;2539;52.568;13.364;2023-04-01T00:13:19;5.73;;;2.87;;
5040;SDS011;2539;52.568;13.364;2023-04-01T00:15:45;2.93;;;2.30;;
5040;SDS011;2539;52.568;13.364;2023-04-01T00:18:12;2.80;;;2.17;;
5040;SDS011;2539;52.568;13.364;2023-04-01T00:20:43;3.50;;;2.33;;
5040;SDS011;2539;52.568;13.364;2023-04-01T00:23:13;7.40;;;2.77;;
5040;SDS011;2539;52.568;13.364;2023-04-01T00:25:49;8.00;;;2.50;;
5040;SDS011;2539;52.568;13.364;2023-04-01T00:28:17;7.03;;;3.13;;
5040;SDS011;2539;52.568;13.364;2023-04-01T00:30:47;3.40;;;2.50;;
5040;SDS011;2539;52.568;13.364;2023-04-01T00:33:13;4.93;;;2.97;;
5040;SDS011;2539;52.568;13.364;2023-04-01T00:35:40;8.40;;;3.10;;
5040;SDS011;2539;52.568;13.364;2023-04-01T00:38:07;5.40;;;2.90;;
5040;SDS011;2539;52.568;13.364;2023-04-01T00:40:35;7.27;;;2.80;;
5040;SDS011;2539;52.568;13.364;2023-04-01T00:43:08;3.47;;;2.67;;
5040;SDS011;2539;52.568;13.364;2023-04-01T00:45:40;3.00;;;2.40;;
5040;SDS011;2539;52.568;13.364;2023-04-01T00:48:12;3.67;;;3.00;;
5040;SDS011;2539;52.568;13.364;2023-04-01T00:50:40;6.03;;;2.90;;
5040;SDS011;2539;52.568;13.364;2023-04-01T00:53:10;4.53;;;2.27;;
5040;SDS011;2539;52.568;13.364;2023-04-01T00:55:37;3.33;;;2.87;;
5040;SDS011;2539;52.568;13.364;2023-04-01T00:58:07;3.10;;;2.57;;
5040;SDS011;2539;52.568;13.364;2023-04-01T01:00:38;3.53;;;2.70;;
5040;SDS011;2539;52.568;13.364;2023-04-01T01:03:04;3.33;;;2.60;;
5040;SDS011;2539;52.568;13.364;2023-04-01T01:08:24;2.80;;;2.27;;
5040;SDS011;2539;52.568;13.364;2023-04-01T01:11:06;5.10;;;2.30;;
5040;SDS011;2539;52.568;13.364;2023-04-01T01:13:43;3.90;;;2.60;;
5040;SDS011;2539;52.568;13.364;2023-04-01T01:16:25;3.30;;;2.10;;
5040;SDS011;2539;52.568;13.364;2023-04-01T01:19:08;4.97;;;2.40;;
5040;SDS011;2539;52.568;13.364;2023-04-01T01:21:58;3.13;;;2.47;;
5040;SDS011;2539;52.568;13.364;2023-04-01T01:27:33;3.60;;;2.40;;
5040;SDS011;2539;52.568;13.364;2023-04-01T01:30:09;3.10;;;2.73;;
5040;SDS011;2539;52.568;13.364;2023-04-01T01:33:01;2.83;;;2.37;;
5040;SDS011;2539;52.568;13.364;2023-04-01T01:38:05;2.90;;;2.60;;
5040;SDS011;2539;52.568;13.364;2023-04-01T01:40:35;3.30;;;2.80;;
5040;SDS011;2539;52.568;13.364;2023-04-01T01:43:05;4.30;;;2.40;;
5040;SDS011;2539;52.568;13.364;2023-04-01T01:45:35;4.67;;;2.73;;
5040;SDS011;2539;52.568;13.364;2023-04-01T01:48:04;4.13;;;2.57;;
5040;SDS011;2539;52.568;13.364;2023-04-01T01:50:32;5.67;;;2.70;;
5040;SDS011;2539;52.568;13.364;2023-04-01T01:53:01;3.57;;;2.73;;
5040;SDS011;2539;52.568;13.364;2023-04-01T01:55:32;2.80;;;2.50;;
5040;SDS011;2539;52.568;13.364;2023-04-01T01:58:05;4.10;;;3.03;;
5040;SDS011;2539;52.568;13.364;2023-04-01T02:01:03;5.73;;;3.00;;
5040;SDS011;2539;52.568;13.364;2023-04-01T02:03:33;3.03;;;2.73;;
5040;SDS011;2539;52.568;13.364;2023-04-01T02:06:03;5.87;;;3.40;;
5040;SDS011;2539;52.568;13.364;2023-04-01T02:08:45;4.60;;;2.90;;
5040;SDS011;2539;52.568;13.364;2023-04-01T02:14:26;4.17;;;2.50;;
5040;SDS011;2539;52.568;13.364;2023-04-01T02:16:57;2.83;;;2.53;;
5040;SDS011;2539;52.568;13.364;2023-04-01T02:19:29;3.60;;;2.67;;
5040;SDS011;2539;52.568;13.364;2023-04-01T02:21:59;3.70;;;2.70;;
5040;SDS011;2539;52.568;13.364;2023-04-01T02:24:28;3.50;;;2.90;;
5040;SDS011;2539;52.568;13.364;2023-04-01T02:26:57;3.03;;;2.60;;
5040;SDS011;2539;52.568;13.364;2023-04-01T02:29:24;3.93;;;2.40;;
5040;SDS011;2539;52.568;13.364;2023-04-01T02:31:51;3.93;;;2.47;;
5040;SDS011;2539;52.568;13.364;2023-04-01T02:34:19;4.47;;;2.80;;
5040;SDS011;2539;52.568;13.364;2023-04-01T02:36:47;4.80;;;3.07;;
5040;SDS011;2539;52.568;13.364;2023-04-01T02:39:15;5.70;;;2.50;;
5040;SDS011;2539;52.568;13.364;2023-04-01T02:41:42;4.97;;;2.57;;
5040;SDS011;2539;52.568;13.364;2023-04-01T02:44:11;5.10;;;2.27;;
5040;SDS011;2539;52.568;13.364;2023-04-01T02:46:38;3.60;;;2.50;;
5040;SDS011;2539;52.568;13.364;2023-04-01T02:49:05;4.50;;;2.20;;
5040;SDS011;2539;52.568;13.364;2023-04-01T02:51:32;4.73;;;2.43;;
5040;SDS011;2539;52.568;13.364;2023-04-01T02:53:59;3.87;;;2.37;;
5040;SDS011;2539;52.568;13.364;2023-04-01T02:56:25;3.43;;;2.47;;
5040;SDS011;2539;52.568;13.364;2023-04-01T02:58:52;4.87;;;2.80;;
5040;SDS011;2539;52.568;13.364;2023-04-01T03:01:20;5.70;;;2.70;;
5040;SDS011;2539;52.568;13.364;2023-04-01T03:03:46;5.43;;;3.73;;
5040;SDS011;2539;52.568;13.364;2023-04-01T03:06:14;6.60;;;3.23;;
5040;SDS011;2539;52.568;13.364;2023-04-01T03:08:41;5.03;;;3.00;;
5040;SDS011;2539;52.568;13.364;2023-04-01T03:11:08;6.03;;;3.47;;
5040;SDS011;2539;52.568;13.364;2023-04-01T03:13:35;5.40;;;3.27;;
5040;SDS011;2539;52.568;13.364;2023-04-01T03:16:02;3.50;;;2.93;;
5040;SDS011;2539;52.568;13.364;2023-04-01T03:18:29;4.30;;;2.90;;
5040;SDS011;2539;52.568;13.364;2023-04-01T03:20:55;4.40;;;3.20;;
5040;SDS011;2539;52.568;13.364;2023-04-01T03:23:22;3.87;;;2.80;;
5040;SDS011;2539;52.568;13.364;2023-04-01T03:25:49;5.20;;;3.07;;
5040;SDS011;2539;52.568;13.364;2023-04-01T03:28:16;4.20;;;2.60;;
5040;SDS011;2539;52.568;13.364;2023-04-01T03:30:42;3.27;;;2.70;;
5040;SDS011;2539;52.568;13.364;2023-04-01T03:33:09;4.10;;;2.70;;
5040;SDS011;2539;52.568;13.364;2023-04-01T03:35:35;4.77;;;3.10;;
5040;SDS011;2539;52.568;13.364;2023-04-01T03:38:01;4.87;;;2.67;;
5040;SDS011;2539;52.568;13.364;2023-04-01T03:40:28;3.47;;;3.00;;
5040;SDS011;2539;52.568;13.364;2023-04-01T03:42:55;6.00;;;2.90;;
5040;SDS011;2539;52.568;13.364;2023-04-01T03:45:21;5.60;;;2.30;;
5040;SDS011;2539;52.568;13.364;2023-04-01T03:47:47;5.30;;;2.40;;
5040;SDS011;2539;52.568;13.364;2023-04-01T03:50:12;5.10;;;2.53;;
5040;SDS011;2539;52.568;13.364;2023-04-01T03:52:38;4.43;;;2.37;;
5040;SDS011;2539;52.568;13.364;2023-04-01T03:55:04;6.83;;;2.90;;
5040;SDS011;2539;52.568;13.364;2023-04-01T03:57:31;6.10;;;2.60;;
5040;SDS011;2539;52.568;13.364;2023-04-01T03:59:57;5.10;;;2.70;;
5040;SDS011;2539;52.568;13.364;2023-04-01T04:02:24;8.60;;;2.90;;
5040;SDS011;2539;52.568;13.364;2023-04-01T04:04:50;4.90;;;4.07;;
5040;SDS011;2539;52.568;13.364;2023-04-01T04:07:16;6.13;;;3.67;;
5040;SDS011;2539;52.568;13.364;2023-04-01T04:09:41;4.83;;;2.83;;
5040;SDS011;2539;52.568;13.364;2023-04-01T04:12:07;3.93;;;2.83;;
5040;SDS011;2539;52.568;13.364;2023-04-01T04:14:32;4.77;;;2.70;;
5040;SDS011;2539;52.568;13.364;2023-04-01T04:16:59;5.40;;;2.70;;
5040;SDS011;2539;52.568;13.364;2023-04-01T04:19:25;3.50;;;2.83;;
5040;SDS011;2539;52.568;13.364;2023-04-01T04:21:52;4.77;;;2.77;;
5040;SDS011;2539;52.568;13.364;2023-04-01T04:24:18;6.63;;;3.20;;
5040;SDS011;2539;52.568;13.364;2023-04-01T04:26:45;5.70;;;2.90;;
5040;SDS011;2539;52.568;13.364;2023-04-01T04:29:11;8.03;;;3.00;;
5040;SDS011;2539;52.568;13.364;2023-04-01T04:31:37;5.17;;;3.40;;
5040;SDS011;2539;52.568;13.364;2023-04-01T04:34:02;12.63;;;3.20;;
5040;SDS011;2539;52.568;13.364;2023-04-01T04:36:28;4.27;;;2.83;;
5040;SDS011;2539;52.568;13.364;2023-04-01T04:38:54;5.43;;;3.03;;
5040;SDS011;2539;52.568;13.364;2023-04-01T04:41:20;3.80;;;2.50;;
5040;SDS011;2539;52.568;13.364;2023-04-01T04:43:51;5.43;;;3.03;;
5040;SDS011;2539;52.568;13.364;2023-04-01T04:46:19;4.60;;;3.07;;
5040;SDS011;2539;52.568;13.364;2023-04-01T04:48:46;5.93;;;3.50;;
5040;SDS011;2539;52.568;13.364;2023-04-01T04:51:14;6.27;;;3.23;;
5040;SDS011;2539;52.568;13.364;2023-04-01T04:53:41;5.40;;;3.20;;
5040;SDS011;2539;52.568;13.364;2023-04-01T04:56:07;7.00;;;2.90;;
5040;SDS011;2539;52.568;13.364;2023-04-01T04:58:34;4.43;;;2.83;;
5040;SDS011;2539;52.568;13.364;2023-04-01T05:01:07;5.63;;;3.23;;
5040;SDS011;2539;52.568;13.364;2023-04-01T05:03:38;3.80;;;3.40;;
5040;SDS011;2539;52.568;13.364;2023-04-01T05:06:06;5.43;;;3.60;;
5040;SDS011;2539;52.568;13.364;2023-04-01T05:08:33;4.60;;;3.40;;
5040;SDS011;2539;52.568;13.364;2023-04-01T05:11:01;6.10;;;3.37;;
5040;SDS011;2539;52.568;13.364;2023-04-01T05:13:28;4.00;;;3.20;;
5040;SDS011;2539;52.568;13.364;2023-04-01T05:15:55;8.33;;;4.23;;
5040;SDS011;2539;52.568;13.364;2023-04-01T05:18:21;8.60;;;5.07;;
5040;SDS011;2539;52.568;13.364;2023-04-01T05:20:49;4.20;;;3.80;;
5040;SDS011;2539;52.568;13.364;2023-04-01T05:23:16;7.57;;;3.83;;
5040;SDS011;2539;52.568;13.364;2023-04-01T05:25:43;6.00;;;3.20;;
5040;SDS011;2539;52.568;13.364;2023-04-01T05:28:10;5.80;;;3.30;;
5040;SDS011;2539;52.568;13.364;2023-04-01T05:30:39;5.03;;;3.33;;
5040;SDS011;2539;52.568;13.364;2023-04-01T05:33:09;4.90;;;3.60;;
5040;SDS011;2539;52.568;13.364;2023-04-01T05:35:36;4.53;;;3.17;;
5040;SDS011;2539;52.568;13.364;2023-04-01T05:38:02;3.73;;;3.07;;
5040;SDS011;2539;52.568;13.364;2023-04-01T05:40:29;4.80;;;3.40;;
5040;SDS011;2539;52.568;13.364;2023-04-01T05:42:56;4.30;;;3.30;;
5040;SDS011;2539;52.568;13.364;2023-04-01T05:45:22;6.00;;;3.50;;
5040;SDS011;2539;52.568;13.364;2023-04-01T05:47:49;6.10;;;3.53;;
5040;SDS011;2539;52.568;13.364;2023-04-01T05:50:15;7.87;;;3.73;;
5040;SDS011;2539;52.568;13.364;2023-04-01T05:52:42;5.63;;;3.60;;
5040;SDS011;2539;52.568;13.364;2023-04-01T05:55:08;7.53;;;3.70;;
5040;SDS011;2539;52.568;13.364;2023-04-01T05:57:35;8.00;;;3.67;;
5040;SDS011;2539;52.568;13.364;2023-04-01T06:00:01;6.40;;;3.60;;
5040;SDS011;2539;52.568;13.364;2023-04-01T06:02:28;7.53;;;3.70;;
5040;SDS011;2539;52.568;13.364;2023-04-01T06:04:56;9.57;;;5.10;;
5040;SDS011;2539;52.568;13.364;2023-04-01T06:07:35;5.77;;;4.03;;
5040;SDS011;2539;52.568;13.364;2023-04-01T06:10:05;9.13;;;4.83;;
5040;SDS011;2539;52.568;13.364;2023-04-01T06:15:53;6.73;;;4.03;;
5040;SDS011;2539;52.568;13.364;2023-04-01T06:27:20;8.50;;;3.83;;
5040;SDS011;2539;52.568;13.364;2023-04-01T06:32:57;6.40;;;4.30;;
5040;SDS011;2539;52.568;13.364;2023-04-01T06:35:40;7.60;;;5.50;;
5040;SDS011;2539;52.568;13.364;2023-04-01T06:44:21;5.73;;;4.50;;
5040;SDS011;2539;52.568;13.364;2023-04-01T06:47:01;6.80;;;4.30;;
5040;SDS011;2539;52.568;13.364;2023-04-01T06:49:51;7.97;;;4.70;;
5040;SDS011;2539;52.568;13.364;2023-04-01T06:55:55;7.00;;;5.20;;
5040;SDS011;2539;52.568;13.364;2023-04-01T06:58:24;5.03;;;4.53;;
5040;SDS011;2539;52.568;13.364;2023-04-01T07:00:58;7.17;;;5.37;;
5040;SDS011;2539;52.568;13.364;2023-04-01T07:03:32;6.90;;;4.70;;
5040;SDS011;2539;52.568;13.364;2023-04-01T07:06:03;9.30;;;5.37;;
5040;SDS011;2539;52.568;13.364;2023-04-01T07:08:38;7.00;;;4.43;;
5040;SDS011;2539;52.568;13.364;2023-04-01T07:11:11;7.10;;;4.30;;
5040;SDS011;2539;52.568;13.364;2023-04-01T07:13:55;9.07;;;4.20;;
5040;SDS011;2539;52.568;13.364;2023-04-01T07:16:38;4.37;;;3.97;;
5040;SDS011;2539;52.568;13.364;2023-04-01T07:19:39;5.17;;;4.00;;
5040;SDS011;2539;52.568;13.364;2023-04-01T07:22:29;5.90;;;4.23;;
5040;SDS011;2539;52.568;13.364;2023-04-01T07:25:01;6.30;;;3.37;;
5040;SDS011;2539;52.568;13.364;2023-04-01T07:27:37;6.40;;;4.07;;
5040;SDS011;2539;52.568;13.364;2023-04-01T07:30:06;5.37;;;4.20;;
5040;SDS011;2539;52.568;13.364;2023-04-01T07:32:52;5.60;;;3.57;;
5040;SDS011;2539;52.568;13.364;2023-04-01T07:35:40;7.30;;;3.03;;
5040;SDS011;2539;52.568;13.364;2023-04-01T07:41:08;2.80;;;2.37;;
5040;SDS011;2539;52.568;13.364;2023-04-01T07:44:03;2.90;;;2.60;;
5040;SDS011;2539;52.568;13.364;2023-04-01T07:46:46;3.53;;;2.87;;
5040;SDS011;2539;52.568;13.364;2023-04-01T07:52:34;6.80;;;5.50;;
5040;SDS011;2539;52.568;13.364;2023-04-01T07:55:27;9.53;;;6.73;;
5040;SDS011;2539;52.568;13.364;2023-04-01T08:00:35;8.07;;;6.33;;
5040;SDS011;2539;52.568;13.364;2023-04-01T08:03:21;7.30;;;5.30;;
5040;SDS011;2539;52.568;13.364;2023-04-01T08:06:18;4.60;;;4.07;;
5040;SDS011;2539;52.568;13.364;2023-04-01T08:12:18;3.40;;;2.80;;
5040;SDS011;2539;52.568;13.364;2023-04-01T08:15:25;3.87;;;2.97;;
5040;SDS011;2539;52.568;13.364;2023-04-01T08:21:10;4.00;;;2.87;;
5040;SDS011;2539;52.568;13.364;2023-04-01T08:23:46;4.37;;;3.97;;
5040;SDS011;2539;52.568;13.364;2023-04-01T08:26:30;4.60;;;3.80;;
5040;SDS011;2539;52.568;13.364;2023-04-01T08:29:08;7.60;;;4.20;;
5040;SDS011;2539;52.568;13.364;2023-04-01T08:34:38;7.97;;;5.70;;
5040;SDS011;2539;52.568;13.364;2023-04-01T08:37:08;6.73;;;5.23;;
5040;SDS011;2539;52.568;13.364;2023-04-01T08:39:51;7.73;;;5.10;;
5040;SDS011;2539;52.568;13.364;2023-04-01T08:42:40;8.57;;;6.10;;
5040;SDS011;2539;52.568;13.364;2023-04-01T08:45:38;8.80;;;5.77;;
5040;SDS011;2539;52.568;13.364;2023-04-01T08:48:36;10.40;;;6.50;;
5040;SDS011;2539;52.568;13.364;2023-04-01T08:51:26;9.77;;;6.80;;
5040;SDS011;2539;52.568;13.364;2023-04-01T08:56:36;12.83;;;8.13;;
5040;SDS011;2539;52.568;13.364;2023-04-01T09:04:59;13.50;;;8.60;;
5040;SDS011;2539;52.568;13.364;2023-04-01T09:10:49;11.40;;;8.53;;
5040;SDS011;2539;52.568;13.364;2023-04-01T09:16:21;14.27;;;8.57;;
5040;SDS011;2539;52.568;13.364;2023-04-01T09:19:20;16.40;;;9.60;;
5040;SDS011;2539;52.568;13.364;2023-04-01T09:24:49;12.87;;;9.07;;
5040;SDS011;2539;52.568;13.364;2023-04-01T09:27:28;12.77;;;9.37;;
5040;SDS011;2539;52.568;13.364;2023-04-01T09:33:17;11.37;;;7.77;;
5040;SDS011;2539;52.568;13.364;2023-04-01T09:36:33;12.33;;;8.80;;
5040;SDS011;2539;52.568;13.364;2023-04-01T09:39:25;12.80;;;8.37;;
5040;SDS011;2539;52.568;13.364;2023-04-01T09:42:08;12.50;;;8.00;;
5040;SDS011;2539;52.568;13.364;2023-04-01T09:45:08;11.50;;;8.73;;
5040;SDS011;2539;52.568;13.364;2023-04-01T09:48:00;12.63;;;9.13;;
5040;SDS011;2539;52.568;13.364;2023-04-01T09:53:43;10.57;;;8.03;;
5040;SDS011;2539;52.568;13.364;2023-04-01T09:56:23;11.70;;;9.37;;
5040;SDS011;2539;52.568;13.364;2023-04-01T10:02:27;58.07;;;35.47;;
5040;SDS011;2539;52.568;13.364;2023-04-01T10:05:58;12.70;;;8.90;;
5040;SDS011;2539;52.568;13.364;2023-04-01T10:08:30;11.70;;;8.60;;
5040;SDS011;2539;52.568;13.364;2023-04-01T10:14:31;11.77;;;9.03;;
5040;SDS011;2539;52.568;13.364;2023-04-01T10:20:27;11.60;;;9.43;;
5040;SDS011;2539;52.568;13.364;2023-04-01T10:23:11;24.43;;;15.50;;
5040;SDS011;2539;52.568;13.364;2023-04-01T10:25:57;19.43;;;12.60;;
5040;SDS011;2539;52.568;13.364;2023-04-01T10:28:37;13.83;;;9.70;;
5040;SDS011;2539;52.568;13.364;2023-04-01T10:31:30;11.37;;;9.23;;
5040;SDS011;2539;52.568;13.364;2023-04-01T10:36:58;12.40;;;8.97;;
5040;SDS011;2539;52.568;13.364;2023-04-01T10:39:34;14.20;;;10.20;;
5040;SDS011;2539;52.568;13.364;2023-04-01T10:58:44;12.83;;;10.33;;
5040;SDS011;2539;52.568;13.364;2023-04-01T11:13:42;13.03;;;9.30;;
5040;SDS011;2539;52.568;13.364;2023-04-01T11:16:45;13.47;;;10.40;;
5040;SDS011;2539;52.568;13.364;2023-04-01T11:22:36;13.90;;;10.33;;
5040;SDS011;2539;52.568;13.364;2023-04-01T11:28:03;12.67;;;9.90;;
5040;SDS011;2539;52.568;13.364;2023-04-01T11:30:53;12.33;;;9.43;;
5040;SDS011;2539;52.568;13.364;2023-04-01T11:33:47;14.43;;;10.53;;
5040;SDS011;2539;52.568;13.364;2023-04-01T11:37:10;14.03;;;10.63;;
5040;SDS011;2539;52.568;13.364;2023-04-01T11:39:42;14.50;;;10.47;;
5040;SDS011;2539;52.568;13.364;2023-04-01T11:42:34;15.13;;;10.97;;
5040;SDS011;2539;52.568;13.364;2023-04-01T11:50:43;14.97;;;11.37;;
5040;SDS011;2539;52.568;13.364;2023-04-01T11:53:33;13.77;;;10.33;;
5040;SDS011;2539;52.568;13.364;2023-04-01T11:56:14;14.33;;;11.73;;
5040;SDS011;2539;52.568;13.364;2023-04-01T11:59:05;17.90;;;11.10;;
5040;SDS011;2539;52.568;13.364;2023-04-01T12:10:21;21.93;;;11.83;;
5040;SDS011;2539;52.568;13.364;2023-04-01T12:13:05;19.40;;;14.17;;
5040;SDS011;2539;52.568;13.364;2023-04-01T12:21:23;16.77;;;10.90;;
5040;SDS011;2539;52.568;13.364;2023-04-01T12:24:20;12.33;;;10.40;;
5040;SDS011;2539;52.568;13.364;2023-04-01T12:27:23;15.00;;;10.80;;
5040;SDS011;2539;52.568;13.364;2023-04-01T12:32:40;17.00;;;11.60;;
5040;SDS011;2539;52.568;13.364;2023-04-01T12:35:37;14.07;;;11.67;;
5040;SDS011;2539;52.568;13.364;2023-04-01T12:46:24;11.87;;;9.90;;
5040;SDS011;2539;52.568;13.364;2023-04-01T12:49:27;14.87;;;10.63;;
5040;SDS011;2539;52.568;13.364;2023-04-01T12:52:12;13.80;;;10.03;;
5040;SDS011;2539;52.568;13.364;2023-04-01T12:55:05;16.47;;;12.00;;
5040;SDS011;2539;52.568;13.364;2023-04-01T13:03:11;17.63;;;11.33;;
5040;SDS011;2539;52.568;13.364;2023-04-01T13:08:26;14.40;;;10.23;;
5040;SDS011;2539;52.568;13.364;2023-04-01T13:14:05;16.20;;;12.30;;
5040;SDS011;2539;52.568;13.364;2023-04-01T13:16:48;16.47;;;12.23;;
5040;SDS011;2539;52.568;13.364;2023-04-01T13:22:05;20.43;;;12.10;;
5040;SDS011;2539;52.568;13.364;2023-04-01T13:24:45;16.27;;;11.43;;
5040;SDS011;2539;52.568;13.364;2023-04-01T13:27:43;13.60;;;9.43;;
5040;SDS011;2539;52.568;13.364;2023-04-01T13:30:24;13.60;;;9.90;;
5040;SDS011;2539;52.568;13.364;2023-04-01T13:33:15;17.07;;;10.57;;
5040;SDS011;2539;52.568;13.364;2023-04-01T13:38:43;14.20;;;10.53;;
5040;SDS011;2539;52.568;13.364;2023-04-01T13:44:28;13.37;;;10.00;;
5040;SDS011;2539;52.568;13.364;2023-04-01T13:49:57;7.90;;;6.40;;
5040;SDS011;2539;52.568;13.364;2023-04-01T13:55:32;13.90;;;8.07;;
5040;SDS011;2539;52.568;13.364;2023-04-01T13:58:13;9.43;;;7.70;;
5040;SDS011;2539;52.568;13.364;2023-04-01T14:06:47;9.07;;;5.93;;
5040;SDS011;2539;52.568;13.364;2023-04-01T14:09:52;5.50;;;4.70;;
5040;SDS011;2539;52.568;13.364;2023-04-01T14:12:43;9.10;;;5.90;;
5040;SDS011;2539;52.568;13.364;2023-04-01T14:21:10;8.23;;;6.50;;
5040;SDS011;2539;52.568;13.364;2023-04-01T14:26:54;7.97;;;5.60;;
5040;SDS011;2539;52.568;13.364;2023-04-01T14:32:09;6.80;;;4.87;;
5040;SDS011;2539;52.568;13.364;2023-04-01T14:35:21;9.60;;;5.77;;
5040;SDS011;2539;52.568;13.364;2023-04-01T14:38:23;6.70;;;5.10;;
5040;SDS011;2539;52.568;13.364;2023-04-01T14:40:56;7.13;;;5.50;;
5040;SDS011;2539;52.568;13.364;2023-04-01T14:43:52;6.23;;;4.90;;
5040;SDS011;2539;52.568;13.364;2023-04-01T14:49:17;4.40;;;3.87;;
5040;SDS011;2539;52.568;13.364;2023-04-01T14:51:48;6.20;;;4.77;;
5040;SDS011;2539;52.568;13.364;2023-04-01T14:54:18;6.67;;;4.90;;
5040;SDS011;2539;52.568;13.364;2023-04-01T14:56:49;5.77;;;4.33;;
5040;SDS011;2539;52.568;13.364;2023-04-01T14:59:29;5.10;;;4.03;;
5040;SDS011;2539;52.568;13.364;2023-04-01T15:04:54;5.07;;;4.20;;
5040;SDS011;2539;52.568;13.364;2023-04-01T15:16:10;7.50;;;5.27;;
5040;SDS011;2539;52.568;13.364;2023-04-01T15:18:51;5.93;;;5.20;;
5040;SDS011;2539;52.568;13.364;2023-04-01T15:21:43;7.07;;;6.37;;
5040;SDS011;2539;52.568;13.364;2023-04-01T15:24:18;8.63;;;5.80;;
5040;SDS011;2539;52.568;13.364;2023-04-01T15:35:32;9.90;;;6.70;;
5040;SDS011;2539;52.568;13.364;2023-04-01T15:38:05;7.47;;;6.00;;
5040;SDS011;2539;52.568;13.364;2023-04-01T15:41:14;8.13;;;6.87;;
5040;SDS011;2539;52.568;13.364;2023-04-01T15:44:00;9.17;;;6.73;;
5040;SDS011;2539;52.568;13.364;2023-04-01T15:49:28;7.57;;;6.13;;
5040;SDS011;2539;52.568;13.364;2023-04-01T15:52:17;7.70;;;6.50;;
5040;SDS011;2539;52.568;13.364;2023-04-01T16:00:30;9.63;;;7.10;;
5040;SDS011;2539;52.568;13.364;2023-04-01T16:03:15;10.47;;;6.70;;
5040;SDS011;2539;52.568;13.364;2023-04-01T16:09:20;6.93;;;6.03;;
5040;SDS011;2539;52.568;13.364;2023-04-01T16:12:07;8.13;;;6.23;;
5040;SDS011;2539;52.568;13.364;2023-04-01T16:21:05;7.47;;;6.77;;
5040;SDS011;2539;52.568;13.364;2023-04-01T16:23:43;7.50;;;6.50;;
5040;SDS011;2539;52.568;13.364;2023-04-01T16:26:20;7.50;;;6.00;;
5040;SDS011;2539;52.568;13.364;2023-04-01T16:29:04;7.07;;;4.80;;
5040;SDS011;2539;52.568;13.364;2023-04-01T16:31:51;9.40;;;5.67;;
5040;SDS011;2539;52.568;13.364;2023-04-01T16:37:06;7.33;;;5.33;;
5040;SDS011;2539;52.568;13.364;2023-04-01T16:45:40;6.13;;;5.53;;
5040;SDS011;2539;52.568;13.364;2023-04-01T16:48:22;23.50;;;16.00;;
5040;SDS011;2539;52.568;13.364;2023-04-01T16:50:58;8.00;;;5.20;;
5040;SDS011;2539;52.568;13.364;2023-04-01T16:56:12;8.20;;;6.10;;
5040;SDS011;2539;52.568;13.364;2023-04-01T16:58:48;5.50;;;4.07;;
5040;SDS011;2539;52.568;13.364;2023-04-01T17:01:29;5.87;;;5.27;;
5040;SDS011;2539;52.568;13.364;2023-04-01T17:07:03;9.90;;;6.10;;
5040;SDS011;2539;52.568;13.364;2023-04-01T17:12:50;10.30;;;5.30;;
5040;SDS011;2539;52.568;13.364;2023-04-01T17:15:58;9.97;;;7.60;;
5040;SDS011;2539;52.568;13.364;2023-04-01T17:18:46;9.80;;;7.70;;
5040;SDS011;2539;52.568;13.364;2023-04-01T17:21:38;8.33;;;6.00;;
5040;SDS011;2539;52.568;13.364;2023-04-01T17:24:25;7.63;;;5.83;;
5040;SDS011;2539;52.568;13.364;2023-04-01T17:27:13;8.27;;;5.43;;
5040;SDS011;2539;52.568;13.364;2023-04-01T17:32:46;6.10;;;5.50;;
5040;SDS011;2539;52.568;13.364;2023-04-01T17:44:10;7.90;;;5.50;;
5040;SDS011;2539;52.568;13.364;2023-04-01T17:46:59;60.63;;;35.47;;
5040;SDS011;2539;52.568;13.364;2023-04-01T17:49:39;6.60;;;5.37;;
5040;SDS011;2539;52.568;13.364;2023-04-01T17:52:24;5.77;;;4.90;;
5040;SDS011;2539;52.568;13.364;2023-04-01T17:58:03;9.37;;;6.00;;
5040;SDS011;2539;52.568;13.364;2023-04-01T18:15:12;6.17;;;5.57;;
5040;SDS011;2539;52.568;13.364;2023-04-01T18:17:52;6.33;;;5.50;;
5040;SDS011;2539;52.568;13.364;2023-04-01T18:23:27;11.10;;;6.20;;
5040;SDS011;2539;52.568;13.364;2023-04-01T18:26:08;7.83;;;5.77;;
5040;SDS011;2539;52.568;13.364;2023-04-01T18:28:40;7.80;;;6.20;;
5040;SDS011;2539;52.568;13.364;2023-04-01T18:31:22;8.37;;;5.83;;
5040;SDS011;2539;52.568;13.364;2023-04-01T18:36:44;7.20;;;6.00;;
5040;SDS011;2539;52.568;13.364;2023-04-01T18:39:22;8.90;;;6.90;;
5040;SDS011;2539;52.568;13.364;2023-04-01T18:42:00;6.30;;;5.70;;
5040;SDS011;2539;52.568;13.364;2023-04-01T18:44:56;9.50;;;7.00;;
5040;SDS011;2539;52.568;13.364;2023-04-01T18:50:27;19.20;;;11.97;;
5040;SDS011;2539;52.568;13.364;2023-04-01T18:53:15;11.50;;;7.20;;
5040;SDS011;2539;52.568;13.364;2023-04-01T18:56:14;11.40;;;6.13;;
5040;SDS011;2539;52.568;13.364;2023-04-01T18:58:53;14.43;;;7.17;;
5040;SDS011;2539;52.568;13.364;2023-04-01T19:01:43;11.43;;;6.87;;
5040;SDS011;2539;52.568;13.364;2023-04-01T19:04:16;11.23;;;7.00;;
5040;SDS011;2539;52.568;13.364;2023-04-01T19:06:53;10.93;;;7.57;;
5040;SDS011;2539;52.568;13.364;2023-04-01T19:09:23;10.30;;;8.50;;
5040;SDS011;2539;52.568;13.364;2023-04-01T19:14:47;9.60;;;7.23;;
5040;SDS011;2539;52.568;13.364;2023-04-01T19:17:24;8.90;;;6.97;;
5040;SDS011;2539;52.568;13.364;2023-04-01T19:20:08;9.90;;;7.40;;
5040;SDS011;2539;52.568;13.364;2023-04-01T19:22:44;11.17;;;6.93;;
5040;SDS011;2539;52.568;13.364;2023-04-01T19:25:42;10.50;;;7.37;;
5040;SDS011;2539;52.568;13.364;2023-04-01T19:28:26;12.73;;;7.00;;
5040;SDS011;2539;52.568;13.364;2023-04-01T19:31:38;10.60;;;7.00;;
5040;SDS011;2539;52.568;13.364;2023-04-01T19:34:15;9.90;;;5.20;;
5040;SDS011;2539;52.568;13.364;2023-04-01T19:36:54;13.10;;;7.93;;
5040;SDS011;2539;52.568;13.364;2023-04-01T19:42:32;15.50;;;7.40;;
5040;SDS011;2539;52.568;13.364;2023-04-01T19:51:05;10.03;;;6.60;;
5040;SDS011;2539;52.568;13.364;2023-04-01T19:56:11;10.80;;;7.30;;
5040;SDS011;2539;52.568;13.364;2023-04-01T19:58:41;9.47;;;6.93;;
5040;SDS011;2539;52.568;13.364;2023-04-01T20:01:52;9.17;;;6.93;;
5040;SDS011;2539;52.568;13.364;2023-04-01T20:04:28;17.27;;;7.43;;
5040;SDS011;2539;52.568;13.364;2023-04-01T20:07:00;12.00;;;8.30;;
5040;SDS011;2539;52.568;13.364;2023-04-01T20:09:54;11.73;;;7.37;;
5040;SDS011;2539;52.568;13.364;2023-04-01T20:12:38;13.30;;;7.37;;
5040;SDS011;2539;52.568;13.364;2023-04-01T20:15:31;11.20;;;5.13;;
5040;SDS011;2539;52.568;13.364;2023-04-01T20:18:02;9.60;;;6.17;;
5040;SDS011;2539;52.568;13.364;2023-04-01T20:20:52;10.47;;;7.77;;
5040;SDS011;2539;52.568;13.364;2023-04-01T20:26:21;10.60;;;6.20;;
5040;SDS011;2539;52.568;13.364;2023-04-01T20:31:41;9.57;;;8.20;;
5040;SDS011;2539;52.568;13.364;2023-04-01T20:36:44;14.10;;;7.40;;
5040;SDS011;2539;52.568;13.364;2023-04-01T20:39:33;12.60;;;7.10;;
5040;SDS011;2539;52.568;13.364;2023-04-01T20:44:56;13.70;;;8.73;;
5040;SDS011;2539;52.568;13.364;2023-04-01T20:50:59;14.23;;;9.10;;
5040;SDS011;2539;52.568;13.364;2023-04-01T20:59:35;10.93;;;8.27;;
5040;SDS011;2539;52.568;13.364;2023-04-01T21:02:32;14.50;;;7.83;;
5040;SDS011;2539;52.568;13.364;2023-04-01T21:08:40;12.03;;;6.53;;
5040;SDS011;2539;52.568;13.364;2023-04-01T21:11:20;9.07;;;6.57;;
5040;SDS011;2539;52.568;13.364;2023-04-01T21:17:06;11.00;;;7.50;;
5040;SDS011;2539;52.568;13.364;2023-04-01T21:20:02;8.27;;;4.57;;
5040;SDS011;2539;52.568;13.364;2023-04-01T21:22:54;9.03;;;5.73;;
5040;SDS011;2539;52.568;13.364;2023-04-01T21:28:47;15.53;;;6.87;;
5040;SDS011;2539;52.568;13.364;2023-04-01T21:31:46;12.10;;;7.80;;
5040;SDS011;2539;52.568;13.364;2023-04-01T21:40:32;10.37;;;8.53;;
5040;SDS011;2539;52.568;13.364;2023-04-01T21:51:41;11.50;;;7.80;;